Airfield :
LOGIN :

Register | Disclaimer

   EN    FR    IT 

 










Legend :    VFR   Marginal VFR   IFR   Intensive IFR   Very Intensive IFR
Visi :
Ceiling :
>= 8 km
>= 3000ft
5 to 8 km
1000 to 3000 ft
1500m to 5 km
500 to 1000 ft
800 to 1500m
200 to 500 ft
< 800m
< 200 ft
Symbols :   Thunderstorms  Fog  Heavy snow  Heavy precipitations  Wind > 20 kt
SIGMETs :     Misc.  Thunderstorms  Icing  Turbulence  Mountain Waves  Volcanic Ashes






- Airport Elevation : 218 ft


EGYD - RAF Cranwell

CURRENT METAR :
  • 151221Z 25019KT 9999 FEW018 BKN250 06/03 Q0992 NOSIG RMK BLU BLU

EXPIRED METARs :
  • 151150Z 25020KT 9999 FEW018 BKN250 06/02 Q0992 NOSIG RMK BLU BLU
  • 151120Z 25020KT 9999 FEW016 BKN250 06/02 Q0992 NOSIG RMK BLU BLU
  • 151050Z 24019G30KT 9999 FEW016 06/02 Q0992 NOSIG RMK BLU BLU
  • 151020Z 24022KT 9999 FEW016 06/02 Q0991 NOSIG RMK BLU BLU
  • 150950Z 23022KT 9999 FEW030 05/01 Q0990 NOSIG RMK BLU BLU

TAF TAF EGYD
Valid from the 15 at 12:00 until the 15 at 18:00 UTC


151045Z 1512/1518 24022G32KT 9999 FEW022
BECMG 1513/1515 23015KT
BECMG 1515/1517 20015KT
PROB30
TEMPO 1515/1518 SCT018



MET'MAP, your aeronautical weather chart ! - Copyright ORBIFLY December 2007 - Disclaimer

ORBIFLY MET'MAP TEAM :

Programming & Development : Alexandra Zaïnal
Concept & original design : Baudouin d'Aumeries
Assistance for programming : Marc-Olivier Méhu
Technical & hardware support : Manuel Goepfert

Contact : metmap@orbifly.com




SOURCES & CREDITS :

   NOAA